sensor_id;sensor_type;location;lat;lon;timestamp;pressure;altitude;pressure_sealevel;temperature;humidity
42591;BME280;28218;53.342;-6.216;2023-05-21T00:01:27;102506.25;;;15.41;100.00
42591;BME280;28218;53.342;-6.216;2023-05-21T00:03:56;102494.78;;;15.41;100.00
42591;BME280;28218;53.342;-6.216;2023-05-21T00:06:25;102501.63;;;15.43;100.00
42591;BME280;28218;53.342;-6.216;2023-05-21T00:08:54;102495.63;;;15.41;100.00
42591;BME280;28218;53.342;-6.216;2023-05-21T00:11:22;102501.09;;;15.40;100.00
42591;BME280;28218;53.342;-6.216;2023-05-21T00:13:50;102499.28;;;15.40;100.00
42591;BME280;28218;53.342;-6.216;2023-05-21T00:16:19;102495.63;;;15.41;100.00
42591;BME280;28218;53.342;-6.216;2023-05-21T00:18:49;102499.28;;;15.40;100.00
42591;BME280;28218;53.342;-6.216;2023-05-21T00:21:20;102501.22;;;15.38;100.00
42591;BME280;28218;53.342;-6.216;2023-05-21T00:23:49;102488.94;;;15.37;100.00
42591;BME280;28218;53.342;-6.216;2023-05-21T00:26:17;102493.25;;;15.38;100.00
42591;BME280;28218;53.342;-6.216;2023-05-21T00:28:45;102495.25;;;15.36;100.00
42591;BME280;28218;53.342;-6.216;2023-05-21T00:31:13;102494.59;;;15.34;100.00
42591;BME280;28218;53.342;-6.216;2023-05-21T00:33:43;102487.28;;;15.36;100.00
42591;BME280;28218;53.342;-6.216;2023-05-21T00:36:12;102487.28;;;15.36;100.00
42591;BME280;28218;53.342;-6.216;2023-05-21T00:38:42;102484.81;;;15.34;100.00
42591;BME280;28218;53.342;-6.216;2023-05-21T00:41:12;102480.31;;;15.35;100.00
42591;BME280;28218;53.342;-6.216;2023-05-21T00:43:40;102482.16;;;15.34;100.00
42591;BME280;28218;53.342;-6.216;2023-05-21T00:46:13;102477.81;;;15.33;100.00
42591;BME280;28218;53.342;-6.216;2023-05-21T00:48:42;102475.59;;;15.29;100.00
42591;BME280;28218;53.342;-6.216;2023-05-21T00:51:14;102464.16;;;15.28;100.00
42591;BME280;28218;53.342;-6.216;2023-05-21T00:53:44;102466.97;;;15.27;100.00
42591;BME280;28218;53.342;-6.216;2023-05-21T00:56:13;102467.28;;;15.24;100.00
42591;BME280;28218;53.342;-6.216;2023-05-21T00:58:41;102463.13;;;15.21;100.00
42591;BME280;28218;53.342;-6.216;2023-05-21T01:01:11;102473.75;;;15.21;100.00
42591;BME280;28218;53.342;-6.216;2023-05-21T01:03:40;102470.28;;;15.21;100.00
42591;BME280;28218;53.342;-6.216;2023-05-21T01:06:10;102467.75;;;15.19;100.00
42591;BME280;28218;53.342;-6.216;2023-05-21T01:08:41;102465.78;;;15.21;100.00
42591;BME280;28218;53.342;-6.216;2023-05-21T01:11:10;102464.78;;;15.22;100.00
42591;BME280;28218;53.342;-6.216;2023-05-21T01:13:40;102460.47;;;15.21;100.00
42591;BME280;28218;53.342;-6.216;2023-05-21T01:16:09;102460.66;;;15.20;100.00
42591;BME280;28218;53.342;-6.216;2023-05-21T01:18:39;102450.16;;;15.18;100.00
42591;BME280;28218;53.342;-6.216;2023-05-21T01:21:09;102450.31;;;15.17;100.00
42591;BME280;28218;53.342;-6.216;2023-05-21T01:23:39;102449.63;;;15.15;100.00
42591;BME280;28218;53.342;-6.216;2023-05-21T01:26:07;102439.88;;;15.15;100.00
42591;BME280;28218;53.342;-6.216;2023-05-21T01:28:38;102444.47;;;15.13;100.00
42591;BME280;28218;53.342;-6.216;2023-05-21T01:31:15;102441.16;;;15.11;100.00
42591;BME280;28218;53.342;-6.216;2023-05-21T01:33:47;102440.34;;;15.11;100.00
42591;BME280;28218;53.342;-6.216;2023-05-21T01:36:20;102440.16;;;15.12;100.00
42591;BME280;28218;53.342;-6.216;2023-05-21T01:38:57;102433.03;;;15.13;100.00
42591;BME280;28218;53.342;-6.216;2023-05-21T01:41:28;102438.66;;;15.09;100.00
42591;BME280;28218;53.342;-6.216;2023-05-21T01:43:59;102437.69;;;15.11;100.00
42591;BME280;28218;53.342;-6.216;2023-05-21T01:46:29;102442.13;;;15.10;100.00
42591;BME280;28218;53.342;-6.216;2023-05-21T01:49:00;102438.66;;;15.09;100.00
42591;BME280;28218;53.342;-6.216;2023-05-21T01:51:29;102430.03;;;15.07;100.00
42591;BME280;28218;53.342;-6.216;2023-05-21T01:54:00;102439.63;;;15.08;100.00
42591;BME280;28218;53.342;-6.216;2023-05-21T01:56:28;102438.81;;;15.08;100.00
42591;BME280;28218;53.342;-6.216;2023-05-21T01:58:59;102443.47;;;15.06;100.00
42591;BME280;28218;53.342;-6.216;2023-05-21T02:01:28;102435.78;;;15.03;100.00
42591;BME280;28218;53.342;-6.216;2023-05-21T02:03:56;102436.78;;;15.02;100.00
42591;BME280;28218;53.342;-6.216;2023-05-21T02:06:25;102429.81;;;15.01;100.00
42591;BME280;28218;53.342;-6.216;2023-05-21T02:08:53;102425.63;;;14.98;100.00
42591;BME280;28218;53.342;-6.216;2023-05-21T02:11:23;102428.59;;;14.95;100.00
42591;BME280;28218;53.342;-6.216;2023-05-21T02:13:52;102425.13;;;14.95;100.00
42591;BME280;28218;53.342;-6.216;2023-05-21T02:16:20;102431.25;;;14.95;100.00
42591;BME280;28218;53.342;-6.216;2023-05-21T02:18:48;102428.47;;;14.97;100.00
42591;BME280;28218;53.342;-6.216;2023-05-21T02:21:19;102431.13;;;14.97;100.00
42591;BME280;28218;53.342;-6.216;2023-05-21T02:23:47;102437.72;;;14.93;100.00
42591;BME280;28218;53.342;-6.216;2023-05-21T02:26:16;102438.56;;;14.93;100.00
42591;BME280;28218;53.342;-6.216;2023-05-21T02:28:46;102436.34;;;14.89;100.00
42591;BME280;28218;53.342;-6.216;2023-05-21T02:31:14;102437.47;;;14.86;100.00
42591;BME280;28218;53.342;-6.216;2023-05-21T02:33:42;102436.97;;;14.82;100.00
42591;BME280;28218;53.342;-6.216;2023-05-21T02:36:10;102434.47;;;14.81;100.00
42591;BME280;28218;53.342;-6.216;2023-05-21T02:38:41;102448.44;;;14.83;100.00
42591;BME280;28218;53.342;-6.216;2023-05-21T02:41:09;102440.59;;;14.81;100.00
42591;BME280;28218;53.342;-6.216;2023-05-21T02:43:38;102437.28;;;14.79;100.00
42591;BME280;28218;53.342;-6.216;2023-05-21T02:46:08;102437.44;;;14.78;100.00
42591;BME280;28218;53.342;-6.216;2023-05-21T02:48:36;102440.41;;;14.75;100.00
42591;BME280;28218;53.342;-6.216;2023-05-21T02:51:04;102441.69;;;14.71;100.00
42591;BME280;28218;53.342;-6.216;2023-05-21T02:53:32;102434.88;;;14.68;100.00
42591;BME280;28218;53.342;-6.216;2023-05-21T02:56:01;102440.31;;;14.67;100.00
42591;BME280;28218;53.342;-6.216;2023-05-21T02:58:29;102435.72;;;14.69;100.00
42591;BME280;28218;53.342;-6.216;2023-05-21T03:00:59;102441.31;;;14.66;100.00
42591;BME280;28218;53.342;-6.216;2023-05-21T03:03:28;102436.00;;;14.66;100.00
42591;BME280;28218;53.342;-6.216;2023-05-21T03:05:58;102443.28;;;14.64;100.00
42591;BME280;28218;53.342;-6.216;2023-05-21T03:08:26;102436.31;;;14.63;100.00
42591;BME280;28218;53.342;-6.216;2023-05-21T03:10:54;102436.31;;;14.63;100.00
42591;BME280;28218;53.342;-6.216;2023-05-21T03:13:23;102431.16;;;14.61;100.00
42591;BME280;28218;53.342;-6.216;2023-05-21T03:15:51;102428.81;;;14.58;100.00
42591;BME280;28218;53.342;-6.216;2023-05-21T03:18:22;102436.09;;;14.56;100.00
42591;BME280;28218;53.342;-6.216;2023-05-21T03:20:52;102429.66;;;14.59;100.00
42591;BME280;28218;53.342;-6.216;2023-05-21T03:23:20;102427.13;;;14.57;100.00
42591;BME280;28218;53.342;-6.216;2023-05-21T03:25:48;102417.22;;;14.59;100.00
42591;BME280;28218;53.342;-6.216;2023-05-21T03:28:17;102415.53;;;14.58;100.00
42591;BME280;28218;53.342;-6.216;2023-05-21T03:30:46;102409.56;;;14.56;100.00
42591;BME280;28218;53.342;-6.216;2023-05-21T03:33:15;102411.00;;;14.50;100.00
42591;BME280;28218;53.342;-6.216;2023-05-21T03:35:44;102417.16;;;14.51;100.00
42591;BME280;28218;53.342;-6.216;2023-05-21T03:38:14;102414.78;;;14.48;100.00
42591;BME280;28218;53.342;-6.216;2023-05-21T03:40:42;102414.78;;;14.48;100.00
42591;BME280;28218;53.342;-6.216;2023-05-21T03:43:10;102417.56;;;14.46;100.00
42591;BME280;28218;53.342;-6.216;2023-05-21T03:45:38;102421.22;;;14.45;100.00
42591;BME280;28218;53.342;-6.216;2023-05-21T03:48:10;102408.25;;;14.42;100.00
42591;BME280;28218;53.342;-6.216;2023-05-21T03:50:38;102423.34;;;14.42;100.00
42591;BME280;28218;53.342;-6.216;2023-05-21T03:53:07;102416.50;;;14.39;100.00
42591;BME280;28218;53.342;-6.216;2023-05-21T03:55:38;102417.66;;;14.37;100.00
42591;BME280;28218;53.342;-6.216;2023-05-21T03:58:06;102424.91;;;14.35;100.00
42591;BME280;28218;53.342;-6.216;2023-05-21T04:00:35;102421.59;;;14.32;100.00
42591;BME280;28218;53.342;-6.216;2023-05-21T04:03:03;102428.72;;;14.32;100.00
42591;BME280;28218;53.342;-6.216;2023-05-21T04:05:33;102419.94;;;14.31;100.00
42591;BME280;28218;53.342;-6.216;2023-05-21T04:08:01;102416.75;;;14.28;100.00
42591;BME280;28218;53.342;-6.216;2023-05-21T04:10:30;102416.91;;;14.26;100.00
42591;BME280;28218;53.342;-6.216;2023-05-21T04:12:59;102413.25;;;14.27;100.00
42591;BME280;28218;53.342;-6.216;2023-05-21T04:15:28;102410.44;;;14.29;100.00
42591;BME280;28218;53.342;-6.216;2023-05-21T04:17:56;102413.94;;;14.29;100.00
42591;BME280;28218;53.342;-6.216;2023-05-21T04:20:24;102406.66;;;14.31;100.00
42591;BME280;28218;53.342;-6.216;2023-05-21T04:22:52;102400.53;;;14.31;100.00
42591;BME280;28218;53.342;-6.216;2023-05-21T04:25:21;102402.72;;;14.36;100.00
42591;BME280;28218;53.342;-6.216;2023-05-21T04:27:49;102398.25;;;14.36;100.00
42591;BME280;28218;53.342;-6.216;2023-05-21T04:30:20;102401.91;;;14.35;100.00
42591;BME280;28218;53.342;-6.216;2023-05-21T04:32:49;102400.22;;;14.34;100.00
42591;BME280;28218;53.342;-6.216;2023-05-21T04:35:18;102402.41;;;14.39;100.00
42591;BME280;28218;53.342;-6.216;2023-05-21T04:37:46;102396.28;;;14.38;100.00
42591;BME280;28218;53.342;-6.216;2023-05-21T04:40:14;102405.75;;;14.41;100.00
42591;BME280;28218;53.342;-6.216;2023-05-21T04:42:44;102402.13;;;14.42;100.00
42591;BME280;28218;53.342;-6.216;2023-05-21T04:45:14;102401.97;;;14.43;100.00
42591;BME280;28218;53.342;-6.216;2023-05-21T04:47:44;102405.16;;;14.47;100.00
42591;BME280;28218;53.342;-6.216;2023-05-21T04:50:13;102397.06;;;14.48;100.00
42591;BME280;28218;53.342;-6.216;2023-05-21T04:52:41;102393.28;;;14.51;100.00
42591;BME280;28218;53.342;-6.216;2023-05-21T04:55:11;102390.47;;;14.52;100.00
42591;BME280;28218;53.342;-6.216;2023-05-21T04:57:39;102390.34;;;14.54;100.00
42591;BME280;28218;53.342;-6.216;2023-05-21T05:00:08;102385.69;;;14.56;100.00
42591;BME280;28218;53.342;-6.216;2023-05-21T05:02:37;102382.75;;;14.59;100.00
42591;BME280;28218;53.342;-6.216;2023-05-21T05:05:08;102381.59;;;14.62;100.00
42591;BME280;28218;53.342;-6.216;2023-05-21T05:07:36;102385.44;;;14.67;100.00
42591;BME280;28218;53.342;-6.216;2023-05-21T05:10:05;102383.31;;;14.71;100.00
42591;BME280;28218;53.342;-6.216;2023-05-21T05:12:33;102382.03;;;14.75;100.00
42591;BME280;28218;53.342;-6.216;2023-05-21T05:15:02;102380.72;;;14.79;100.00
42591;BME280;28218;53.342;-6.216;2023-05-21T05:17:30;102372.59;;;14.80;100.00
42591;BME280;28218;53.342;-6.216;2023-05-21T05:20:00;102370.47;;;14.84;100.00
42591;BME280;28218;53.342;-6.216;2023-05-21T05:22:30;102374.63;;;14.87;100.00
42591;BME280;28218;53.342;-6.216;2023-05-21T05:24:59;102369.19;;;14.88;100.00
42591;BME280;28218;53.342;-6.216;2023-05-21T05:27:27;102369.00;;;14.90;100.00
42591;BME280;28218;53.342;-6.216;2023-05-21T05:29:55;102378.16;;;14.95;100.00
42591;BME280;28218;53.342;-6.216;2023-05-21T05:32:23;102382.66;;;14.95;100.00
42591;BME280;28218;53.342;-6.216;2023-05-21T05:34:52;102379.53;;;14.99;100.00
42591;BME280;28218;53.342;-6.216;2023-05-21T05:37:20;102374.22;;;14.99;100.00
42591;BME280;28218;53.342;-6.216;2023-05-21T05:39:50;102377.69;;;15.00;100.00
42591;BME280;28218;53.342;-6.216;2023-05-21T05:42:18;102376.72;;;15.01;100.00
42591;BME280;28218;53.342;-6.216;2023-05-21T05:44:47;102385.53;;;15.01;100.00
42591;BME280;28218;53.342;-6.216;2023-05-21T05:47:15;102386.19;;;15.03;100.00
42591;BME280;28218;53.342;-6.216;2023-05-21T05:49:43;102386.84;;;15.05;100.00
42591;BME280;28218;53.342;-6.216;2023-05-21T05:52:12;102379.41;;;15.09;100.00
42591;BME280;28218;53.342;-6.216;2023-05-21T05:54:40;102371.31;;;15.11;100.00
42591;BME280;28218;53.342;-6.216;2023-05-21T05:57:10;102370.16;;;15.13;100.00
42591;BME280;28218;53.342;-6.216;2023-05-21T05:59:38;102376.16;;;15.23;100.00
42591;BME280;28218;53.342;-6.216;2023-05-21T06:02:07;102378.47;;;15.18;100.00
42591;BME280;28218;53.342;-6.216;2023-05-21T06:04:35;102381.28;;;15.17;100.00
42591;BME280;28218;53.342;-6.216;2023-05-21T06:07:03;102373.16;;;15.18;100.00
42591;BME280;28218;53.342;-6.216;2023-05-21T06:09:32;102381.94;;;15.19;100.00
42591;BME280;28218;53.342;-6.216;2023-05-21T06:12:00;102385.28;;;15.21;100.00
42591;BME280;28218;53.342;-6.216;2023-05-21T06:14:30;102393.25;;;15.21;100.00
42591;BME280;28218;53.342;-6.216;2023-05-21T06:16:58;102389.63;;;15.22;100.00
42591;BME280;28218;53.342;-6.216;2023-05-21T06:19:26;102385.66;;;15.26;100.00
42591;BME280;28218;53.342;-6.216;2023-05-21T06:21:55;102388.97;;;15.28;100.00
42591;BME280;28218;53.342;-6.216;2023-05-21T06:24:24;102396.47;;;15.32;100.00
42591;BME280;28218;53.342;-6.216;2023-05-21T06:26:53;102396.16;;;15.36;100.00
42591;BME280;28218;53.342;-6.216;2023-05-21T06:29:21;102394.69;;;15.41;100.00
42591;BME280;28218;53.342;-6.216;2023-05-21T06:31:51;102397.16;;;15.43;100.00
42591;BME280;28218;53.342;-6.216;2023-05-21T06:34:19;102400.19;;;15.48;100.00
42591;BME280;28218;53.342;-6.216;2023-05-21T06:36:47;102401.03;;;15.48;100.00
42591;BME280;28218;53.342;-6.216;2023-05-21T06:39:15;102405.00;;;15.52;100.00
42591;BME280;28218;53.342;-6.216;2023-05-21T06:41:44;102404.72;;;15.55;100.00
42591;BME280;28218;53.342;-6.216;2023-05-21T06:44:13;102406.06;;;15.59;100.00
42591;BME280;28218;53.342;-6.216;2023-05-21T06:46:42;102409.22;;;15.63;100.00
42591;BME280;28218;53.342;-6.216;2023-05-21T06:49:12;102412.56;;;15.65;100.00
42591;BME280;28218;53.342;-6.216;2023-05-21T06:51:40;102417.75;;;15.67;100.00
42591;BME280;28218;53.342;-6.216;2023-05-21T06:54:09;102420.06;;;15.70;100.00
42591;BME280;28218;53.342;-6.216;2023-05-21T06:56:37;102425.06;;;15.73;100.00
42591;BME280;28218;53.342;-6.216;2023-05-21T06:59:05;102421.41;;;15.74;100.00
42591;BME280;28218;53.342;-6.216;2023-05-21T07:01:33;102416.75;;;15.76;100.00
42591;BME280;28218;53.342;-6.216;2023-05-21T07:04:02;102419.41;;;15.76;100.00
42591;BME280;28218;53.342;-6.216;2023-05-21T07:06:31;102417.97;;;15.81;100.00
42591;BME280;28218;53.342;-6.216;2023-05-21T07:09:01;102419.09;;;15.79;100.00
42591;BME280;28218;53.342;-6.216;2023-05-21T07:11:29;102417.97;;;15.81;100.00
42591;BME280;28218;53.342;-6.216;2023-05-21T07:13:58;102422.28;;;15.82;100.00
42591;BME280;28218;53.342;-6.216;2023-05-21T07:16:27;102412.16;;;15.86;100.00
42591;BME280;28218;53.342;-6.216;2023-05-21T07:18:55;102415.31;;;15.90;100.00
42591;BME280;28218;53.342;-6.216;2023-05-21T07:21:24;102414.50;;;15.97;100.00
42591;BME280;28218;53.342;-6.216;2023-05-21T07:23:53;102415.66;;;15.95;100.00
42591;BME280;28218;53.342;-6.216;2023-05-21T07:26:22;102422.19;;;16.00;100.00
42591;BME280;28218;53.342;-6.216;2023-05-21T07:28:52;102415.53;;;16.04;100.00
42591;BME280;28218;53.342;-6.216;2023-05-21T07:31:20;102407.75;;;16.19;100.00
42591;BME280;28218;53.342;-6.216;2023-05-21T07:33:48;102419.25;;;16.28;100.00
42591;BME280;28218;53.342;-6.216;2023-05-21T07:36:17;102409.59;;;16.35;100.00
42591;BME280;28218;53.342;-6.216;2023-05-21T07:38:45;102409.94;;;16.40;100.00
42591;BME280;28218;53.342;-6.216;2023-05-21T07:41:14;102410.44;;;16.44;100.00
42591;BME280;28218;53.342;-6.216;2023-05-21T07:43:44;102414.44;;;16.48;100.00
42591;BME280;28218;53.342;-6.216;2023-05-21T07:46:12;102414.44;;;16.48;100.00
42591;BME280;28218;53.342;-6.216;2023-05-21T07:48:41;102409.59;;;16.51;100.00
42591;BME280;28218;53.342;-6.216;2023-05-21T07:51:10;102413.75;;;16.54;100.00
42591;BME280;28218;53.342;-6.216;2023-05-21T07:53:38;102418.75;;;16.57;100.00
42591;BME280;28218;53.342;-6.216;2023-05-21T07:56:06;102413.25;;;16.58;100.00
42591;BME280;28218;53.342;-6.216;2023-05-21T07:58:36;102418.91;;;16.64;100.00
42591;BME280;28218;53.342;-6.216;2023-05-21T08:01:05;102413.91;;;16.69;100.00
42591;BME280;28218;53.342;-6.216;2023-05-21T08:03:33;102416.44;;;16.78;100.00
42591;BME280;28218;53.342;-6.216;2023-05-21T08:06:02;102424.25;;;16.88;100.00
42591;BME280;28218;53.342;-6.216;2023-05-21T08:08:30;102419.25;;;16.93;100.00
42591;BME280;28218;53.342;-6.216;2023-05-21T08:10:59;102426.56;;;16.99;100.00
42591;BME280;28218;53.342;-6.216;2023-05-21T08:13:27;102425.91;;;17.05;100.00
42591;BME280;28218;53.342;-6.216;2023-05-21T08:15:57;102425.88;;;17.14;100.00
42591;BME280;28218;53.342;-6.216;2023-05-21T08:18:25;102420.88;;;17.19;100.00
42591;BME280;28218;53.342;-6.216;2023-05-21T08:20:54;102422.84;;;17.25;100.00
42591;BME280;28218;53.342;-6.216;2023-05-21T08:23:22;102426.84;;;17.29;100.00
42591;BME280;28218;53.342;-6.216;2023-05-21T08:25:50;102422.81;;;17.41;100.00
42591;BME280;28218;53.342;-6.216;2023-05-21T08:28:20;102430.25;;;17.54;100.00
42591;BME280;28218;53.342;-6.216;2023-05-21T08:30:49;102426.06;;;17.59;100.00
42591;BME280;28218;53.342;-6.216;2023-05-21T08:33:18;102430.72;;;17.66;100.00
42591;BME280;28218;53.342;-6.216;2023-05-21T08:35:47;102434.03;;;17.68;100.00
42591;BME280;28218;53.342;-6.216;2023-05-21T08:38:15;102437.06;;;17.65;100.00
42591;BME280;28218;53.342;-6.216;2023-05-21T08:40:44;102436.03;;;17.66;100.00
42591;BME280;28218;53.342;-6.216;2023-05-21T08:43:13;102444.69;;;17.68;100.00
42591;BME280;28218;53.342;-6.216;2023-05-21T08:45:44;102440.19;;;17.68;100.00
42591;BME280;28218;53.342;-6.216;2023-05-21T08:48:15;102444.03;;;17.66;100.00
42591;BME280;28218;53.342;-6.216;2023-05-21T08:50:45;102450.03;;;17.68;100.00
42591;BME280;28218;53.342;-6.216;2023-05-21T08:53:14;102445.69;;;17.67;100.00
42591;BME280;28218;53.342;-6.216;2023-05-21T08:55:54;102448.53;;;17.65;100.00
42591;BME280;28218;53.342;-6.216;2023-05-21T08:58:23;102453.06;;;17.65;100.00
42591;BME280;28218;53.342;-6.216;2023-05-21T09:00:53;102461.03;;;17.65;100.00
42591;BME280;28218;53.342;-6.216;2023-05-21T09:03:22;102457.38;;;17.66;100.00
42591;BME280;28218;53.342;-6.216;2023-05-21T09:05:52;102452.38;;;17.62;100.00
42591;BME280;28218;53.342;-6.216;2023-05-21T09:08:26;102453.91;;;17.57;100.00
42591;BME280;28218;53.342;-6.216;2023-05-21T09:10:56;102454.91;;;17.56;100.00
42591;BME280;28218;53.342;-6.216;2023-05-21T09:13:25;102447.94;;;17.47;100.00
42591;BME280;28218;53.342;-6.216;2023-05-21T09:15:54;102460.13;;;17.41;100.00
42591;BME280;28218;53.342;-6.216;2023-05-21T09:18:23;102454.13;;;17.39;100.00
42591;BME280;28218;53.342;-6.216;2023-05-21T09:20:54;102461.47;;;17.37;100.00
42591;BME280;28218;53.342;-6.216;2023-05-21T09:23:23;102461.16;;;17.32;100.00
42591;BME280;28218;53.342;-6.216;2023-05-21T09:25:51;102457.81;;;17.30;100.00
42591;BME280;28218;53.342;-6.216;2023-05-21T09:28:20;102467.97;;;17.26;100.00
42591;BME280;28218;53.342;-6.216;2023-05-21T09:30:51;102464.16;;;17.21;100.00
42591;BME280;28218;53.342;-6.216;2023-05-21T09:33:23;102468.31;;;17.15;100.00
42591;BME280;28218;53.342;-6.216;2023-05-21T09:35:54;102469.66;;;17.11;100.00
42591;BME280;28218;53.342;-6.216;2023-05-21T09:38:22;102473.50;;;17.08;100.00
42591;BME280;28218;53.342;-6.216;2023-05-21T09:40:53;102460.84;;;17.02;100.00
42591;BME280;28218;53.342;-6.216;2023-05-21T09:43:22;102464.69;;;17.00;100.00
42591;BME280;28218;53.342;-6.216;2023-05-21T09:45:52;102461.03;;;17.01;100.00
42591;BME280;28218;53.342;-6.216;2023-05-21T09:48:40;102458.34;;;17.01;100.00
42591;BME280;28218;53.342;-6.216;2023-05-21T09:51:12;102458.84;;;17.04;100.00
42591;BME280;28218;53.342;-6.216;2023-05-21T09:53:43;102462.16;;;17.06;100.00
42591;BME280;28218;53.342;-6.216;2023-05-21T09:56:11;102469.16;;;17.07;100.00
42591;BME280;28218;53.342;-6.216;2023-05-21T09:58:40;102468.00;;;17.02;100.00
42591;BME280;28218;53.342;-6.216;2023-05-21T10:01:09;102474.66;;;16.98;100.00
42591;BME280;28218;53.342;-6.216;2023-05-21T10:03:38;102480.84;;;16.82;100.00
42591;BME280;28218;53.342;-6.216;2023-05-21T10:06:07;102482.34;;;16.76;100.00
42591;BME280;28218;53.342;-6.216;2023-05-21T10:08:41;102491.16;;;16.77;100.00
42591;BME280;28218;53.342;-6.216;2023-05-21T10:11:12;102489.13;;;16.71;100.00
42591;BME280;28218;53.342;-6.216;2023-05-21T10:13:44;102482.13;;;16.70;100.00
42591;BME280;28218;53.342;-6.216;2023-05-21T10:16:16;102475.13;;;16.69;100.00
42591;BME280;28218;53.342;-6.216;2023-05-21T10:18:45;102479.16;;;16.73;100.00
42591;BME280;28218;53.342;-6.216;2023-05-21T10:21:16;102475.34;;;16.75;100.00
42591;BME280;28218;53.342;-6.216;2023-05-21T10:23:46;102472.19;;;16.80;100.00
42591;BME280;28218;53.342;-6.216;2023-05-21T10:26:16;102471.84;;;16.83;100.00
42591;BME280;28218;53.342;-6.216;2023-05-21T10:28:45;102463.53;;;16.86;100.00
42591;BME280;28218;53.342;-6.216;2023-05-21T10:31:13;102470.84;;;16.92;100.00
42591;BME280;28218;53.342;-6.216;2023-05-21T10:33:42;102473.31;;;16.94;100.00
42591;BME280;28218;53.342;-6.216;2023-05-21T10:36:11;102471.16;;;16.97;100.00
42591;BME280;28218;53.342;-6.216;2023-05-21T10:38:39;102459.50;;;16.98;100.00
42591;BME280;28218;53.342;-6.216;2023-05-21T10:41:11;102464.50;;;17.01;100.00
42591;BME280;28218;53.342;-6.216;2023-05-21T10:43:47;102460.00;;;17.02;100.00
42591;BME280;28218;53.342;-6.216;2023-05-21T10:46:42;102456.19;;;17.04;100.00
42591;BME280;28218;53.342;-6.216;2023-05-21T10:49:33;102457.84;;;17.14;100.00
42591;BME280;28218;53.342;-6.216;2023-05-21T10:52:10;102443.34;;;17.16;100.00
42591;BME280;28218;53.342;-6.216;2023-05-21T10:55:11;102447.50;;;17.27;100.00
42591;BME280;28218;53.342;-6.216;2023-05-21T10:58:05;102445.81;;;17.34;100.00
42591;BME280;28218;53.342;-6.216;2023-05-21T11:00:38;102442.44;;;17.40;100.00
42591;BME280;28218;53.342;-6.216;2023-05-21T11:03:07;102441.59;;;17.48;100.00
42591;BME280;28218;53.342;-6.216;2023-05-21T11:05:38;102448.69;;;17.63;100.00
42591;BME280;28218;53.342;-6.216;2023-05-21T11:08:24;102442.03;;;17.76;100.00
42591;BME280;28218;53.342;-6.216;2023-05-21T11:10:54;102442.44;;;17.87;100.00
42591;BME280;28218;53.342;-6.216;2023-05-21T11:13:26;102433.28;;;17.90;100.00
42591;BME280;28218;53.342;-6.216;2023-05-21T11:16:06;102431.56;;;17.97;100.00
42591;BME280;28218;53.342;-6.216;2023-05-21T11:18:59;102433.06;;;18.00;100.00
42591;BME280;28218;53.342;-6.216;2023-05-21T11:21:30;102436.22;;;18.03;100.00
42591;BME280;28218;53.342;-6.216;2023-05-21T11:24:03;102435.56;;;18.01;100.00
42591;BME280;28218;53.342;-6.216;2023-05-21T11:27:00;102443.31;;;18.11;100.00
42591;BME280;28218;53.342;-6.216;2023-05-21T11:29:38;102445.00;;;18.12;100.00
42591;BME280;28218;53.342;-6.216;2023-05-21T11:32:08;102444.81;;;18.13;100.00
42591;BME280;28218;53.342;-6.216;2023-05-21T11:34:38;102441.16;;;18.14;100.00
42591;BME280;28218;53.342;-6.216;2023-05-21T11:37:26;102440.50;;;18.12;100.00
42591;BME280;28218;53.342;-6.216;2023-05-21T11:39:57;102444.13;;;18.20;100.00
42591;BME280;28218;53.342;-6.216;2023-05-21T11:42:31;102438.44;;;18.23;100.00
42591;BME280;28218;53.342;-6.216;2023-05-21T11:45:01;102428.25;;;18.26;100.00
42591;BME280;28218;53.342;-6.216;2023-05-21T11:47:31;102429.56;;;18.30;100.00
42591;BME280;28218;53.342;-6.216;2023-05-21T11:50:00;102424.31;;;18.37;100.00
42591;BME280;28218;53.342;-6.216;2023-05-21T11:52:29;102418.97;;;18.37;100.00
42591;BME280;28218;53.342;-6.216;2023-05-21T11:54:59;102433.44;;;18.43;100.00
42591;BME280;28218;53.342;-6.216;2023-05-21T11:57:27;102426.28;;;18.43;100.00
42591;BME280;28218;53.342;-6.216;2023-05-21T11:59:58;102427.00;;;18.37;100.00
42591;BME280;28218;53.342;-6.216;2023-05-21T12:02:30;102431.84;;;18.33;100.00
42591;BME280;28218;53.342;-6.216;2023-05-21T12:04:58;102431.56;;;18.28;100.00
42591;BME280;28218;53.342;-6.216;2023-05-21T12:07:27;102436.88;;;18.28;100.00
42591;BME280;28218;53.342;-6.216;2023-05-21T12:09:57;102435.75;;;18.23;100.00
42591;BME280;28218;53.342;-6.216;2023-05-21T12:12:26;102441.22;;;18.29;100.00
42591;BME280;28218;53.342;-6.216;2023-05-21T12:15:11;102440.97;;;18.39;100.00
42591;BME280;28218;53.342;-6.216;2023-05-21T12:17:42;102435.59;;;18.47;100.00
42591;BME280;28218;53.342;-6.216;2023-05-21T12:20:14;102434.81;;;18.61;100.00
42591;BME280;28218;53.342;-6.216;2023-05-21T12:22:43;102439.50;;;18.59;100.00
42591;BME280;28218;53.342;-6.216;2023-05-21T12:25:11;102440.91;;;18.47;100.00
42591;BME280;28218;53.342;-6.216;2023-05-21T12:27:39;102428.66;;;18.38;100.00
42591;BME280;28218;53.342;-6.216;2023-05-21T12:30:11;102440.03;;;18.32;100.00
42591;BME280;28218;53.342;-6.216;2023-05-21T12:32:39;102433.34;;;18.36;100.00
42591;BME280;28218;53.342;-6.216;2023-05-21T12:35:20;102436.94;;;18.43;100.00
42591;BME280;28218;53.342;-6.216;2023-05-21T12:37:50;102441.25;;;18.44;100.00
42591;BME280;28218;53.342;-6.216;2023-05-21T12:40:19;102437.13;;;18.42;100.00
42591;BME280;28218;53.342;-6.216;2023-05-21T12:42:48;102434.28;;;18.43;100.00
42591;BME280;28218;53.342;-6.216;2023-05-21T12:45:17;102435.25;;;18.50;100.00